Lethbridge County Airport
CYQL : now visible

Airfield :











YOU CAN JOIN US ON...

 
LOGIN :

Register | Disclaimer

   EN    FR    IT 

 









Legend :    VFR   Marginal VFR   IFR   Intensive IFR   Very Intensive IFR
Visi :
Ceiling :
>= 8 km
>= 3000ft
5 to 8 km
1000 to 3000 ft
1500m to 5 km
500 to 1000 ft
800 to 1500m
200 to 500 ft
< 800m
< 200 ft
Symbols :   Thunderstorms  Fog  Heavy snow  Heavy precipitations  Wind > 20 kt






- Airport Elevation : 3047 ft
- IATA code : YQL


CYQL - Lethbridge County

CURRENT METAR :
  • 050000Z 11011KT 080V150 15SM -TSRA SCT050CB BKN100 OVC300 22/11 A3004 RMK CB3AC3CI2 PRESFR SLP170 DENSITY ALT 4400FT

EXPIRED METARs :
  • 042328Z 06005KT 10SM -TSRA SCT050CB BKN100 OVC300 25/13 A3004 RMK CB3AC4CI1 SLP167 DENSITY ALT 4800FT
  • 042300Z 06009KT 5SM FU SCT100 BKN300 26/12 A3004 RMK FU2AC2CI2 SLP166 DENSITY ALT 4900FT
  • 042208Z 05011KT 5SM FU BKN042CB BKN100 24/16 A3004 RMK FU2CB3AC2 SLP166 DENSITY ALT 4700FT
  • 042147Z 05003KT 310V070 4SM -TSRA FU BKN046CB BKN100 26/14 A3008 RMK FU2CB3AC2 SLP175 DENSITY ALT 4900FT

TAF TAF CYQL
Valid from the 05 at 00:00 until the 05 at 12:00 UTC


042338Z 0500/0512 06010KT P6SM SCT100 BKN300
TEMPO 0500/0502 VRB15G25KT 5SM TSRA FU BKN080CB BKN300
FM050200 18010KT P6SM SCT100 SCT300
PROB30 0502/0506 VRB15G25KT 5SM TSRA FU BKN100CB BKN300
FM050900 20006KT P6SM FEW100
TEMPO 0509/0512 5SM FU BR
PROB30 0509/0512 1/2SM FG RMK NXT FCST BY 050600Z
CZEG FIR / North America



MET'MAP, your aeronautical weather chart ! - Copyright ORBIFLY December 2007 - Disclaimer

ORBIFLY MET'MAP TEAM :

Programming & Development : Alexandra Zaïnal
Concept & original design : Baudouin d'Aumeries
Assistance for programming : Marc-Olivier Méhu
Technical & hardware support : Manuel Goepfert

Contact : metmap@orbifly.com




SOURCES & CREDITS :

   NOAA       Earth
Advisory